sensor_id;sensor_type;location;lat;lon;timestamp;pressure;altitude;pressure_sealevel;temperature;humidity
67457;BME280;54319;52.038;4.640;2023-02-28T00:01:48;103372.78;;;0.46;87.54
67457;BME280;54319;52.038;4.640;2023-02-28T00:04:16;103382.22;;;0.53;87.47
67457;BME280;54319;52.038;4.640;2023-02-28T00:06:43;103379.19;;;0.59;87.60
67457;BME280;54319;52.038;4.640;2023-02-28T00:09:09;103271.84;;;0.08;87.63
67457;BME280;54319;52.038;4.640;2023-02-28T00:11:36;103384.44;;;0.78;87.90
67457;BME280;54319;52.038;4.640;2023-02-28T00:14:04;103380.97;;;0.92;87.16
67457;BME280;54319;52.038;4.640;2023-02-28T00:16:31;103379.69;;;0.99;86.61
67457;BME280;54319;52.038;4.640;2023-02-28T00:18:57;103378.00;;;1.13;86.39
67457;BME280;54319;52.038;4.640;2023-02-28T00:21:24;103386.78;;;1.17;85.80
67457;BME280;54319;52.038;4.640;2023-02-28T00:23:51;103377.59;;;1.21;85.65
67457;BME280;54319;52.038;4.640;2023-02-28T00:26:18;103378.19;;;1.26;85.73
67457;BME280;54319;52.038;4.640;2023-02-28T00:28:44;103379.84;;;1.28;85.60
67457;BME280;54319;52.038;4.640;2023-02-28T00:31:12;103384.97;;;1.33;85.46
67457;BME280;54319;52.038;4.640;2023-02-28T00:33:39;103378.53;;;1.36;85.22
67457;BME280;54319;52.038;4.640;2023-02-28T00:36:09;103298.78;;;0.88;85.27
67457;BME280;54319;52.038;4.640;2023-02-28T00:38:36;103357.38;;;1.29;85.46
67457;BME280;54319;52.038;4.640;2023-02-28T00:41:03;103379.84;;;1.44;85.45
67457;BME280;54319;52.038;4.640;2023-02-28T00:43:32;103385.88;;;1.48;85.25
67457;BME280;54319;52.038;4.640;2023-02-28T00:45:59;103366.63;;;1.40;85.08
67457;BME280;54319;52.038;4.640;2023-02-28T00:48:29;103379.41;;;1.52;84.89
67457;BME280;54319;52.038;4.640;2023-02-28T00:50:55;103359.34;;;1.42;85.09
67457;BME280;54319;52.038;4.640;2023-02-28T00:53:22;103339.84;;;1.38;85.06
67457;BME280;54319;52.038;4.640;2023-02-28T00:55:49;103368.44;;;1.55;85.06
67457;BME280;54319;52.038;4.640;2023-02-28T00:58:16;103370.19;;;1.56;84.92
67457;BME280;54319;52.038;4.640;2023-02-28T01:00:42;103371.81;;;1.59;84.99
67457;BME280;54319;52.038;4.640;2023-02-28T01:03:14;103368.44;;;1.55;85.05
67457;BME280;54319;52.038;4.640;2023-02-28T01:05:43;103385.97;;;1.63;84.93
67457;BME280;54319;52.038;4.640;2023-02-28T01:08:11;103387.69;;;1.64;85.02
67457;BME280;54319;52.038;4.640;2023-02-28T01:10:38;103385.84;;;1.64;84.98
67457;BME280;54319;52.038;4.640;2023-02-28T01:13:05;103378.66;;;1.65;85.00
67457;BME280;54319;52.038;4.640;2023-02-28T01:15:32;103332.72;;;1.37;84.93
67457;BME280;54319;52.038;4.640;2023-02-28T01:17:59;103359.41;;;1.56;84.85
67457;BME280;54319;52.038;4.640;2023-02-28T01:20:25;103325.63;;;1.36;84.84
67457;BME280;54319;52.038;4.640;2023-02-28T01:22:53;103383.69;;;1.71;84.90
67457;BME280;54319;52.038;4.640;2023-02-28T01:25:20;103384.56;;;1.71;85.09
67457;BME280;54319;52.038;4.640;2023-02-28T01:27:46;103371.72;;;1.61;84.87
67457;BME280;54319;52.038;4.640;2023-02-28T01:30:13;103342.44;;;1.40;85.09
67457;BME280;54319;52.038;4.640;2023-02-28T01:32:40;103356.53;;;1.59;85.02
67457;BME280;54319;52.038;4.640;2023-02-28T01:35:07;103347.69;;;1.57;85.12
67457;BME280;54319;52.038;4.640;2023-02-28T01:37:33;103342.84;;;1.48;84.68
67457;BME280;54319;52.038;4.640;2023-02-28T01:40:02;103375.34;;;1.76;85.22
67457;BME280;54319;52.038;4.640;2023-02-28T01:42:29;103376.56;;;1.70;84.97
67457;BME280;54319;52.038;4.640;2023-02-28T01:45:01;103380.53;;;1.79;85.17
67457;BME280;54319;52.038;4.640;2023-02-28T01:47:30;103372.28;;;1.82;84.97
67457;BME280;54319;52.038;4.640;2023-02-28T01:49:59;103373.06;;;1.84;84.58
67457;BME280;54319;52.038;4.640;2023-02-28T01:52:27;103369.41;;;1.85;84.51
67457;BME280;54319;52.038;4.640;2023-02-28T01:54:56;103365.63;;;1.87;84.69
67457;BME280;54319;52.038;4.640;2023-02-28T01:57:29;103364.78;;;1.87;84.49
67457;BME280;54319;52.038;4.640;2023-02-28T02:00:06;103360.09;;;1.91;84.42
67457;BME280;54319;52.038;4.640;2023-02-28T02:02:36;103318.41;;;1.67;84.27
67457;BME280;54319;52.038;4.640;2023-02-28T02:05:06;103358.75;;;1.98;84.23
67457;BME280;54319;52.038;4.640;2023-02-28T02:07:36;103294.66;;;1.59;83.98
67457;BME280;54319;52.038;4.640;2023-02-28T02:10:11;103358.75;;;1.98;84.04
67457;BME280;54319;52.038;4.640;2023-02-28T02:13:02;103331.91;;;1.82;83.89
67457;BME280;54319;52.038;4.640;2023-02-28T02:15:34;103344.03;;;1.89;84.31
67457;BME280;54319;52.038;4.640;2023-02-28T02:18:06;103357.88;;;1.97;84.49
67457;BME280;54319;52.038;4.640;2023-02-28T02:24:16;103350.50;;;2.01;84.35
67457;BME280;54319;52.038;4.640;2023-02-28T02:27:08;103303.53;;;1.76;84.13
67457;BME280;54319;52.038;4.640;2023-02-28T02:35:48;103324.34;;;2.03;84.13
67457;BME280;54319;52.038;4.640;2023-02-28T02:38:23;103312.31;;;1.94;84.14
67457;BME280;54319;52.038;4.640;2023-02-28T02:40:56;103270.66;;;1.71;84.38
67457;BME280;54319;52.038;4.640;2023-02-28T02:43:29;103323.00;;;2.10;84.10
67457;BME280;54319;52.038;4.640;2023-02-28T02:46:04;103302.31;;;1.96;84.10
67457;BME280;54319;52.038;4.640;2023-02-28T02:48:34;103319.72;;;2.05;84.00
67457;BME280;54319;52.038;4.640;2023-02-28T02:51:07;103334.53;;;2.12;83.95
67457;BME280;54319;52.038;4.640;2023-02-28T02:53:42;103260.06;;;1.68;84.22
67457;BME280;54319;52.038;4.640;2023-02-28T02:56:10;103318.00;;;2.04;84.23
67457;BME280;54319;52.038;4.640;2023-02-28T02:58:40;103217.38;;;1.47;83.87
67457;BME280;54319;52.038;4.640;2023-02-28T03:01:10;103329.84;;;2.16;84.01
67457;BME280;54319;52.038;4.640;2023-02-28T03:03:38;103332.44;;;2.17;84.18
67457;BME280;54319;52.038;4.640;2023-02-28T03:06:07;103142.16;;;1.00;84.43
67457;BME280;54319;52.038;4.640;2023-02-28T03:08:36;103338.38;;;2.23;83.94
67457;BME280;54319;52.038;4.640;2023-02-28T03:11:04;103332.91;;;2.24;84.12
67457;BME280;54319;52.038;4.640;2023-02-28T03:13:59;103336.38;;;2.26;84.18
67457;BME280;54319;52.038;4.640;2023-02-28T03:16:50;103340.72;;;2.29;84.02
67457;BME280;54319;52.038;4.640;2023-02-28T03:19:40;103342.25;;;2.33;84.10
67457;BME280;54319;52.038;4.640;2023-02-28T03:22:24;103336.97;;;2.31;83.88
67457;BME280;54319;52.038;4.640;2023-02-28T03:25:02;103304.91;;;2.12;83.48
67457;BME280;54319;52.038;4.640;2023-02-28T03:27:38;103299.03;;;1.91;84.03
67457;BME280;54319;52.038;4.640;2023-02-28T03:30:10;103344.56;;;2.39;84.50
67457;BME280;54319;52.038;4.640;2023-02-28T03:32:43;103340.22;;;2.37;84.58
67457;BME280;54319;52.038;4.640;2023-02-28T03:35:17;103301.47;;;2.10;84.68
67457;BME280;54319;52.038;4.640;2023-02-28T03:37:51;103343.69;;;2.39;84.88
67457;BME280;54319;52.038;4.640;2023-02-28T03:40:21;103338.41;;;2.37;85.03
67457;BME280;54319;52.038;4.640;2023-02-28T03:42:52;103295.50;;;2.05;85.04
67457;BME280;54319;52.038;4.640;2023-02-28T03:45:22;103292.69;;;2.07;85.19
67457;BME280;54319;52.038;4.640;2023-02-28T03:47:53;103232.28;;;1.67;85.03
67457;BME280;54319;52.038;4.640;2023-02-28T03:50:23;103334.75;;;2.38;85.20
67457;BME280;54319;52.038;4.640;2023-02-28T03:52:57;103276.91;;;2.00;85.22
67457;BME280;54319;52.038;4.640;2023-02-28T03:55:28;103277.59;;;2.04;85.37
67457;BME280;54319;52.038;4.640;2023-02-28T03:57:58;103327.63;;;2.37;85.36
67457;BME280;54319;52.038;4.640;2023-02-28T04:00:31;103331.28;;;2.36;85.57
67457;BME280;54319;52.038;4.640;2023-02-28T04:03:00;103301.63;;;2.22;85.41
67457;BME280;54319;52.038;4.640;2023-02-28T04:05:27;103326.44;;;2.27;85.51
67457;BME280;54319;52.038;4.640;2023-02-28T04:08:03;103308.56;;;2.26;85.33
67457;BME280;54319;52.038;4.640;2023-02-28T04:10:31;103296.66;;;2.15;85.58
67457;BME280;54319;52.038;4.640;2023-02-28T04:12:57;103334.19;;;2.33;85.50
67457;BME280;54319;52.038;4.640;2023-02-28T04:15:24;103323.09;;;2.23;85.52
67457;BME280;54319;52.038;4.640;2023-02-28T04:17:52;103341.28;;;2.34;85.61
67457;BME280;54319;52.038;4.640;2023-02-28T04:20:19;103343.22;;;2.32;85.74
67457;BME280;54319;52.038;4.640;2023-02-28T04:22:45;103349.56;;;2.31;85.98
67457;BME280;54319;52.038;4.640;2023-02-28T04:25:13;103343.41;;;2.29;85.91
67457;BME280;54319;52.038;4.640;2023-02-28T04:27:40;103339.75;;;2.30;85.69
67457;BME280;54319;52.038;4.640;2023-02-28T04:30:10;103355.94;;;2.30;85.74
67457;BME280;54319;52.038;4.640;2023-02-28T04:32:37;103353.22;;;2.30;85.97
67457;BME280;54319;52.038;4.640;2023-02-28T04:35:04;103336.06;;;2.16;85.93
67457;BME280;54319;52.038;4.640;2023-02-28T04:37:31;103326.56;;;2.11;86.05
67457;BME280;54319;52.038;4.640;2023-02-28T04:40:00;103343.00;;;2.21;86.08
67457;BME280;54319;52.038;4.640;2023-02-28T04:42:28;103273.53;;;1.82;86.25
67457;BME280;54319;52.038;4.640;2023-02-28T04:45:00;103351.50;;;2.29;86.40
67457;BME280;54319;52.038;4.640;2023-02-28T04:47:27;103347.44;;;2.22;86.63
67457;BME280;54319;52.038;4.640;2023-02-28T04:49:55;103352.53;;;2.26;86.19
67457;BME280;54319;52.038;4.640;2023-02-28T04:52:21;103349.06;;;2.24;86.43
67457;BME280;54319;52.038;4.640;2023-02-28T04:54:48;103333.88;;;2.09;86.35
67457;BME280;54319;52.038;4.640;2023-02-28T04:57:14;103359.75;;;2.26;86.52
67457;BME280;54319;52.038;4.640;2023-02-28T04:59:42;103365.13;;;2.26;86.79
67457;BME280;54319;52.038;4.640;2023-02-28T05:02:09;103357.06;;;2.26;86.90
67457;BME280;54319;52.038;4.640;2023-02-28T05:04:36;103350.81;;;2.25;87.30
67457;BME280;54319;52.038;4.640;2023-02-28T05:07:03;103340.69;;;2.14;87.17
67457;BME280;54319;52.038;4.640;2023-02-28T05:09:29;103358.97;;;2.24;87.52
67457;BME280;54319;52.038;4.640;2023-02-28T05:11:59;103350.88;;;2.24;87.42
67457;BME280;54319;52.038;4.640;2023-02-28T05:14:25;103353.78;;;2.21;87.33
67457;BME280;54319;52.038;4.640;2023-02-28T05:16:53;103345.31;;;2.12;87.35
67457;BME280;54319;52.038;4.640;2023-02-28T05:19:20;103356.47;;;2.21;87.68
67457;BME280;54319;52.038;4.640;2023-02-28T05:21:50;103347.03;;;2.13;87.73
67457;BME280;54319;52.038;4.640;2023-02-28T05:24:17;103321.91;;;1.98;87.54
67457;BME280;54319;52.038;4.640;2023-02-28T05:26:48;103352.03;;;2.20;87.69
67457;BME280;54319;52.038;4.640;2023-02-28T05:29:15;103351.09;;;2.21;87.48
67457;BME280;54319;52.038;4.640;2023-02-28T05:31:42;103364.56;;;2.21;87.24
67457;BME280;54319;52.038;4.640;2023-02-28T05:34:10;103327.81;;;2.05;86.62
67457;BME280;54319;52.038;4.640;2023-02-28T05:36:38;103316.84;;;1.94;85.73
67457;BME280;54319;52.038;4.640;2023-02-28T05:39:05;103363.69;;;2.20;85.75
67457;BME280;54319;52.038;4.640;2023-02-28T05:41:32;103359.34;;;2.17;85.61
67457;BME280;54319;52.038;4.640;2023-02-28T05:43:59;103357.44;;;2.20;85.18
67457;BME280;54319;52.038;4.640;2023-02-28T05:46:25;103355.69;;;2.19;84.84
67457;BME280;54319;52.038;4.640;2023-02-28T05:48:52;103369.16;;;2.19;84.87
67457;BME280;54319;52.038;4.640;2023-02-28T05:51:21;103294.78;;;1.72;84.84
67457;BME280;54319;52.038;4.640;2023-02-28T05:53:48;103362.44;;;2.26;84.79
67457;BME280;54319;52.038;4.640;2023-02-28T05:56:14;103364.00;;;2.30;84.42
67457;BME280;54319;52.038;4.640;2023-02-28T05:58:42;103358.69;;;2.28;83.90
67457;BME280;54319;52.038;4.640;2023-02-28T06:01:31;103354.75;;;2.34;82.91
67457;BME280;54319;52.038;4.640;2023-02-28T06:03:59;103306.25;;;2.05;82.63
67457;BME280;54319;52.038;4.640;2023-02-28T06:06:28;103352.47;;;2.28;82.99
67457;BME280;54319;52.038;4.640;2023-02-28T06:08:55;103355.31;;;2.25;83.22
67457;BME280;54319;52.038;4.640;2023-02-28T06:11:22;103319.91;;;2.02;83.44
67457;BME280;54319;52.038;4.640;2023-02-28T06:13:54;103340.38;;;1.90;82.66
67457;BME280;54319;52.038;4.640;2023-02-28T06:16:21;103328.63;;;1.77;81.44
67457;BME280;54319;52.038;4.640;2023-02-28T06:18:48;103321.06;;;1.53;81.18
67457;BME280;54319;52.038;4.640;2023-02-28T06:21:15;103356.22;;;1.80;80.98
67457;BME280;54319;52.038;4.640;2023-02-28T06:23:43;103357.66;;;1.71;81.15
67457;BME280;54319;52.038;4.640;2023-02-28T06:26:10;103361.38;;;1.69;80.77
67457;BME280;54319;52.038;4.640;2023-02-28T06:28:36;103356.06;;;1.67;79.73
67457;BME280;54319;52.038;4.640;2023-02-28T06:31:07;103302.72;;;1.13;80.41
67457;BME280;54319;52.038;4.640;2023-02-28T06:33:34;103365.31;;;1.47;79.78
67457;BME280;54319;52.038;4.640;2023-02-28T06:36:01;103315.06;;;1.17;79.85
67457;BME280;54319;52.038;4.640;2023-02-28T06:38:28;103314.03;;;1.04;79.75
67457;BME280;54319;52.038;4.640;2023-02-28T06:40:57;103367.41;;;1.42;80.21
67457;BME280;54319;52.038;4.640;2023-02-28T06:43:25;103372.44;;;1.32;80.67
67457;BME280;54319;52.038;4.640;2023-02-28T06:45:54;103337.09;;;1.08;82.36
67457;BME280;54319;52.038;4.640;2023-02-28T06:48:21;103374.06;;;1.20;82.18
67457;BME280;54319;52.038;4.640;2023-02-28T06:50:48;103377.50;;;1.22;83.05
67457;BME280;54319;52.038;4.640;2023-02-28T06:53:14;103360.16;;;1.12;83.49
67457;BME280;54319;52.038;4.640;2023-02-28T06:55:41;103359.91;;;1.00;84.65
67457;BME280;54319;52.038;4.640;2023-02-28T06:58:09;103373.00;;;1.07;84.84
67457;BME280;54319;52.038;4.640;2023-02-28T07:00:41;103392.28;;;1.15;85.47
67457;BME280;54319;52.038;4.640;2023-02-28T07:03:09;103362.06;;;0.94;85.62
67457;BME280;54319;52.038;4.640;2023-02-28T07:05:36;103297.56;;;0.46;85.74
67457;BME280;54319;52.038;4.640;2023-02-28T07:08:03;103408.22;;;1.02;86.09
67457;BME280;54319;52.038;4.640;2023-02-28T07:10:31;103404.22;;;0.93;86.93
67457;BME280;54319;52.038;4.640;2023-02-28T07:12:58;103408.38;;;0.83;87.30
67457;BME280;54319;52.038;4.640;2023-02-28T07:15:26;103239.19;;;-0.34;87.86
67457;BME280;54319;52.038;4.640;2023-02-28T07:17:53;103384.75;;;0.56;88.55
67457;BME280;54319;52.038;4.640;2023-02-28T07:20:19;103411.03;;;0.67;88.73
67457;BME280;54319;52.038;4.640;2023-02-28T07:22:46;103411.53;;;0.57;89.51
67457;BME280;54319;52.038;4.640;2023-02-28T07:25:20;103411.66;;;0.54;89.95
67457;BME280;54319;52.038;4.640;2023-02-28T07:27:47;103411.94;;;0.50;90.12
67457;BME280;54319;52.038;4.640;2023-02-28T07:30:14;103417.47;;;0.47;90.49
67457;BME280;54319;52.038;4.640;2023-02-28T07:32:42;103419.38;;;0.45;91.05
67457;BME280;54319;52.038;4.640;2023-02-28T07:35:08;103412.78;;;0.50;90.77
67457;BME280;54319;52.038;4.640;2023-02-28T07:37:35;103415.75;;;0.46;90.88
67457;BME280;54319;52.038;4.640;2023-02-28T07:40:03;103408.47;;;0.48;90.88
67457;BME280;54319;52.038;4.640;2023-02-28T07:42:33;103397.66;;;0.32;91.50
67457;BME280;54319;52.038;4.640;2023-02-28T07:45:00;103412.44;;;0.40;91.55
67457;BME280;54319;52.038;4.640;2023-02-28T07:47:29;103416.06;;;0.39;91.53
67457;BME280;54319;52.038;4.640;2023-02-28T07:49:57;103423.31;;;0.37;91.83
67457;BME280;54319;52.038;4.640;2023-02-28T07:52:23;103414.00;;;0.27;91.88
67457;BME280;54319;52.038;4.640;2023-02-28T07:54:50;103394.59;;;0.22;91.99
67457;BME280;54319;52.038;4.640;2023-02-28T07:57:18;103405.97;;;0.27;92.35
67457;BME280;54319;52.038;4.640;2023-02-28T07:59:44;103423.56;;;0.33;92.62
67457;BME280;54319;52.038;4.640;2023-02-28T08:02:12;103412.13;;;0.29;92.74
67457;BME280;54319;52.038;4.640;2023-02-28T08:04:39;103421.66;;;0.35;92.87
67457;BME280;54319;52.038;4.640;2023-02-28T08:07:08;103424.34;;;0.35;92.76
67457;BME280;54319;52.038;4.640;2023-02-28T08:09:35;103424.19;;;0.38;92.76
67457;BME280;54319;52.038;4.640;2023-02-28T08:12:01;103423.19;;;0.40;93.03
67457;BME280;54319;52.038;4.640;2023-02-28T08:14:28;103421.28;;;0.42;92.82
67457;BME280;54319;52.038;4.640;2023-02-28T08:16:55;103392.38;;;0.30;92.69
67457;BME280;54319;52.038;4.640;2023-02-28T08:19:21;103401.81;;;0.37;93.11
67457;BME280;54319;52.038;4.640;2023-02-28T08:21:48;103411.16;;;0.48;93.13
67457;BME280;54319;52.038;4.640;2023-02-28T08:24:16;103407.41;;;0.50;93.03
67457;BME280;54319;52.038;4.640;2023-02-28T08:26:46;103351.81;;;0.19;93.12
67457;BME280;54319;52.038;4.640;2023-02-28T08:29:13;103390.00;;;0.41;93.23
67457;BME280;54319;52.038;4.640;2023-02-28T08:31:41;103402.53;;;0.59;93.39
67457;BME280;54319;52.038;4.640;2023-02-28T08:34:10;103382.06;;;0.56;93.54
67457;BME280;54319;52.038;4.640;2023-02-28T08:36:37;103408.34;;;0.67;93.30
67457;BME280;54319;52.038;4.640;2023-02-28T08:39:04;103219.09;;;-0.43;93.13
67457;BME280;54319;52.038;4.640;2023-02-28T08:41:33;103405.81;;;0.64;93.26
67457;BME280;54319;52.038;4.640;2023-02-28T08:44:00;103397.75;;;0.64;93.43
67457;BME280;54319;52.038;4.640;2023-02-28T08:46:27;103368.06;;;0.49;93.21
67457;BME280;54319;52.038;4.640;2023-02-28T08:48:54;103399.41;;;0.66;93.25
67457;BME280;54319;52.038;4.640;2023-02-28T08:51:21;103394.81;;;0.68;93.61
67457;BME280;54319;52.038;4.640;2023-02-28T08:53:52;103398.09;;;0.74;93.77
67457;BME280;54319;52.038;4.640;2023-02-28T08:56:19;103399.53;;;0.81;93.96
67457;BME280;54319;52.038;4.640;2023-02-28T08:58:48;103399.69;;;0.78;93.52
67457;BME280;54319;52.038;4.640;2023-02-28T09:01:16;103388.59;;;0.68;93.21
67457;BME280;54319;52.038;4.640;2023-02-28T09:03:44;103403.34;;;0.77;93.03
67457;BME280;54319;52.038;4.640;2023-02-28T09:06:11;103410.09;;;0.84;93.72
67457;BME280;54319;52.038;4.640;2023-02-28T09:08:38;103401.88;;;0.87;93.34
67457;BME280;54319;52.038;4.640;2023-02-28T09:11:06;103406.84;;;0.95;93.50
67457;BME280;54319;52.038;4.640;2023-02-28T09:13:33;103276.47;;;0.22;93.25
67457;BME280;54319;52.038;4.640;2023-02-28T09:16:03;103338.19;;;0.55;92.92
67457;BME280;54319;52.038;4.640;2023-02-28T09:18:30;103412.13;;;1.12;93.36
67457;BME280;54319;52.038;4.640;2023-02-28T09:20:57;103410.63;;;1.23;93.55
67457;BME280;54319;52.038;4.640;2023-02-28T09:23:25;103410.38;;;1.27;93.04
67457;BME280;54319;52.038;4.640;2023-02-28T09:25:53;103412.72;;;1.34;93.15
67457;BME280;54319;52.038;4.640;2023-02-28T09:28:21;103417.75;;;1.40;92.67
67457;BME280;54319;52.038;4.640;2023-02-28T09:30:55;103380.97;;;1.24;93.32
67457;BME280;54319;52.038;4.640;2023-02-28T09:33:24;103408.63;;;1.58;93.29
67457;BME280;54319;52.038;4.640;2023-02-28T09:35:58;103420.59;;;1.69;93.12
67457;BME280;54319;52.038;4.640;2023-02-28T09:38:25;103415.78;;;1.74;92.40
67457;BME280;54319;52.038;4.640;2023-02-28T09:40:54;103409.44;;;1.75;92.34
67457;BME280;54319;52.038;4.640;2023-02-28T09:43:25;103410.03;;;1.80;91.72
67457;BME280;54319;52.038;4.640;2023-02-28T09:45:55;103418.44;;;1.90;91.47
67457;BME280;54319;52.038;4.640;2023-02-28T09:48:31;103418.66;;;2.01;91.38
67457;BME280;54319;52.038;4.640;2023-02-28T09:51:02;103423.19;;;2.01;90.84
67457;BME280;54319;52.038;4.640;2023-02-28T09:53:31;103426.28;;;2.09;91.05
67457;BME280;54319;52.038;4.640;2023-02-28T09:56:07;103420.13;;;2.07;90.32
67457;BME280;54319;52.038;4.640;2023-02-28T09:58:47;103421.69;;;2.11;90.38
67457;BME280;54319;52.038;4.640;2023-02-28T10:01:21;103425.31;;;2.10;89.96
67457;BME280;54319;52.038;4.640;2023-02-28T10:03:56;103418.53;;;2.19;89.89
67457;BME280;54319;52.038;4.640;2023-02-28T10:06:28;103422.56;;;2.26;89.35
67457;BME280;54319;52.038;4.640;2023-02-28T10:09:00;103423.44;;;2.27;88.64
67457;BME280;54319;52.038;4.640;2023-02-28T10:11:28;103408.53;;;2.21;87.46
67457;BME280;54319;52.038;4.640;2023-02-28T10:13:59;103418.53;;;2.34;86.85
67457;BME280;54319;52.038;4.640;2023-02-28T10:16:33;103419.88;;;2.41;84.53
67457;BME280;54319;52.038;4.640;2023-02-28T10:19:09;103421.34;;;2.46;84.52
67457;BME280;54319;52.038;4.640;2023-02-28T10:21:41;103425.41;;;2.54;84.10
67457;BME280;54319;52.038;4.640;2023-02-28T10:24:19;103408.25;;;2.40;83.91
67457;BME280;54319;52.038;4.640;2023-02-28T10:26:47;103416.66;;;2.50;82.64
67457;BME280;54319;52.038;4.640;2023-02-28T10:29:14;103414.63;;;2.54;81.99
67457;BME280;54319;52.038;4.640;2023-02-28T10:31:41;103421.53;;;2.58;81.24
67457;BME280;54319;52.038;4.640;2023-02-28T10:34:12;103396.22;;;2.46;81.30
67457;BME280;54319;52.038;4.640;2023-02-28T10:36:39;103414.63;;;2.68;80.24
67457;BME280;54319;52.038;4.640;2023-02-28T10:39:38;103331.75;;;2.28;79.58
67457;BME280;54319;52.038;4.640;2023-02-28T10:42:19;103415.94;;;2.90;76.80
67457;BME280;54319;52.038;4.640;2023-02-28T10:44:46;103415.56;;;3.11;75.85
67457;BME280;54319;52.038;4.640;2023-02-28T10:47:14;103412.72;;;3.27;74.13
67457;BME280;54319;52.038;4.640;2023-02-28T10:49:48;103409.06;;;3.28;70.96
67457;BME280;54319;52.038;4.640;2023-02-28T10:52:33;103402.94;;;3.39;72.71
67457;BME280;54319;52.038;4.640;2023-02-28T10:55:18;103375.59;;;3.30;74.22
67457;BME280;54319;52.038;4.640;2023-02-28T10:57:46;103398.31;;;3.41;72.31
67457;BME280;54319;52.038;4.640;2023-02-28T11:00:16;103399.94;;;3.43;71.27
67457;BME280;54319;52.038;4.640;2023-02-28T11:02:44;103378.47;;;3.42;71.62
67457;BME280;54319;52.038;4.640;2023-02-28T11:05:27;103391.44;;;3.50;70.20
67457;BME280;54319;52.038;4.640;2023-02-28T11:07:57;103367.47;;;3.45;69.97
67457;BME280;54319;52.038;4.640;2023-02-28T11:10:29;103391.78;;;3.85;70.69
67457;BME280;54319;52.038;4.640;2023-02-28T11:12:57;103400.41;;;3.90;67.79
67457;BME280;54319;52.038;4.640;2023-02-28T11:15:26;103388.03;;;4.14;64.65
67457;BME280;54319;52.038;4.640;2023-02-28T11:17:57;103367.84;;;4.19;64.32
67457;BME280;54319;52.038;4.640;2023-02-28T11:20:28;103361.66;;;4.30;62.66
67457;BME280;54319;52.038;4.640;2023-02-28T11:22:57;103383.16;;;4.58;64.53
67457;BME280;54319;52.038;4.640;2023-02-28T11:25:26;103362.63;;;4.55;61.59
67457;BME280;54319;52.038;4.640;2023-02-28T11:27:57;103372.91;;;4.50;61.31
67457;BME280;54319;52.038;4.640;2023-02-28T11:30:33;103377.53;;;4.61;60.79
67457;BME280;54319;52.038;4.640;2023-02-28T11:33:01;103388.88;;;4.66;58.11
67457;BME280;54319;52.038;4.640;2023-02-28T11:35:43;103362.59;;;4.68;58.78
67457;BME280;54319;52.038;4.640;2023-02-28T11:38:12;103359.28;;;4.89;56.65
67457;BME280;54319;52.038;4.640;2023-02-28T11:40:43;103370.53;;;4.96;52.76
67457;BME280;54319;52.038;4.640;2023-02-28T11:43:30;103370.22;;;5.00;53.07
67457;BME280;54319;52.038;4.640;2023-02-28T11:46:14;103373.03;;;4.86;53.39
67457;BME280;54319;52.038;4.640;2023-02-28T11:48:54;103358.16;;;4.80;53.96
67457;BME280;54319;52.038;4.640;2023-02-28T11:51:29;103365.69;;;4.88;54.39
67457;BME280;54319;52.038;4.640;2023-02-28T11:54:32;103373.84;;;5.12;52.58
67457;BME280;54319;52.038;4.640;2023-02-28T11:57:12;103357.38;;;5.15;52.43
67457;BME280;54319;52.038;4.640;2023-02-28T11:59:51;103354.97;;;5.24;52.20
67457;BME280;54319;52.038;4.640;2023-02-28T12:02:24;103357.09;;;5.31;51.03
67457;BME280;54319;52.038;4.640;2023-02-28T12:05:02;103338.53;;;5.38;52.83
67457;BME280;54319;52.038;4.640;2023-02-28T12:07:40;103340.78;;;5.44;50.51
67457;BME280;54319;52.038;4.640;2023-02-28T12:10:17;103348.97;;;5.56;50.51
67457;BME280;54319;52.038;4.640;2023-02-28T12:12:53;103350.72;;;5.68;50.08
67457;BME280;54319;52.038;4.640;2023-02-28T12:15:43;103337.66;;;5.62;51.27
67457;BME280;54319;52.038;4.640;2023-02-28T12:18:26;103330.88;;;5.68;49.88
67457;BME280;54319;52.038;4.640;2023-02-28T12:21:01;103347.78;;;5.71;52.92
67457;BME280;54319;52.038;4.640;2023-02-28T12:23:51;103334.06;;;5.61;50.25
67457;BME280;54319;52.038;4.640;2023-02-28T12:26:30;103329.69;;;5.72;49.31
67457;BME280;54319;52.038;4.640;2023-02-28T12:29:02;103331.69;;;5.81;51.10
67457;BME280;54319;52.038;4.640;2023-02-28T12:31:36;103337.84;;;5.83;50.43
67457;BME280;54319;52.038;4.640;2023-02-28T12:34:06;103338.84;;;5.93;49.99
67457;BME280;54319;52.038;4.640;2023-02-28T12:36:36;103340.22;;;5.99;45.82
67457;BME280;54319;52.038;4.640;2023-02-28T12:39:10;103303.69;;;5.69;45.83
67457;BME280;54319;52.038;4.640;2023-02-28T12:41:41;103256.41;;;5.50;47.33
67457;BME280;54319;52.038;4.640;2023-02-28T12:44:14;103305.09;;;5.86;45.83
67457;BME280;54319;52.038;4.640;2023-02-28T12:46:47;103330.91;;;6.15;44.69
67457;BME280;54319;52.038;4.640;2023-02-28T12:49:19;103337.63;;;5.98;45.30
67457;BME280;54319;52.038;4.640;2023-02-28T12:51:48;103310.16;;;5.91;46.51
67457;BME280;54319;52.038;4.640;2023-02-28T12:54:22;103336.13;;;5.93;46.43
67457;BME280;54319;52.038;4.640;2023-02-28T12:57:00;103245.19;;;5.44;45.64
67457;BME280;54319;52.038;4.640;2023-02-28T12:59:35;103326.78;;;5.98;47.60
67457;BME280;54319;52.038;4.640;2023-02-28T13:05:29;103310.34;;;6.12;48.17
67457;BME280;54319;52.038;4.640;2023-02-28T13:08:12;103310.84;;;6.29;44.94
67457;BME280;54319;52.038;4.640;2023-02-28T13:10:49;103307.16;;;6.07;44.10
67457;BME280;54319;52.038;4.640;2023-02-28T13:13:21;103302.44;;;6.43;44.86
67457;BME280;54319;52.038;4.640;2023-02-28T13:16:00;103294.31;;;6.55;43.92
67457;BME280;54319;52.038;4.640;2023-02-28T13:18:32;103289.28;;;6.39;44.26
67457;BME280;54319;52.038;4.640;2023-02-28T13:21:01;103214.72;;;5.99;45.13
67457;BME280;54319;52.038;4.640;2023-02-28T13:29:41;103092.56;;;5.90;41.89
67457;BME280;54319;52.038;4.640;2023-02-28T13:32:35;103166.38;;;6.49;42.14
67457;BME280;54319;52.038;4.640;2023-02-28T13:38:16;103225.97;;;6.72;42.41
67457;BME280;54319;52.038;4.640;2023-02-28T13:40:43;103273.53;;;7.20;41.46